»·PEaware :: N482DT KSEA-KNUW

N482DT :: KSEA-KNUW

FLIGHT INFORMATION

Flight Status: Arrived
Operator: Privately registered:
United States
More flights under this callsign
Pilot: Wade J. (23035)
Aircraft: CESSNA 172 SKYHAWK
(C172)
More flights by this aircraft type
Origin: KSEA Seattle-Tacoma Intl
United States
Destination: KNUW Whidbey Island NAS
United States
More flights between these airports :: More routes between these airports
Route: +SEA7 PAE V23 AMEKE
File this flight plan on PilotEdge
Remarks:
Altitude:
(Current/Filed)
5,000ft
Speed:
(Current/Filed)
115kts
Departed: 10-Feb-19 06:49 PM
Arrived: 10-Feb-19 07:51 PM
Distance/Time
Traveled:
56nm/1:02
Distance/Time
To Go:
Arrived

Flight Plot

Page will automatically refresh every two minutes.

Flight plan parsing failed; only flown route is shown


Map Options




Map Legend


Flown Route
Filed Route
Departure Airport
Arrival Airport
Navaid (VOR, NDB)
Fix

Horizontal Profiles

Position Reports

Time Latitude Longitude Heading Altitude Ground
Speed
10-Feb-19 18:24 47.439185 -122.315195 55 351ft 0kts
10-Feb-19 18:25 47.439185 -122.315195 55 351ft 0kts
10-Feb-19 18:26 47.439185 -122.315195 55 351ft 0kts
10-Feb-19 18:27 47.439185 -122.315195 55 351ft 0kts
10-Feb-19 18:28 47.439185 -122.315195 55 351ft 0kts
10-Feb-19 18:29 47.439185 -122.315195 55 351ft 0kts
10-Feb-19 18:30 47.439185 -122.315195 55 351ft 0kts
10-Feb-19 18:31 47.439185 -122.315195 55 351ft 0kts
10-Feb-19 18:32 47.439185 -122.315195 55 351ft 0kts
10-Feb-19 18:33 47.439185 -122.315195 55 351ft 0kts
10-Feb-19 18:34 47.439185 -122.315195 55 351ft 0kts
10-Feb-19 18:35 47.439185 -122.315195 55 351ft 0kts
10-Feb-19 18:36 47.439185 -122.315195 55 351ft 0kts
10-Feb-19 18:37 47.439185 -122.315195 55 351ft 0kts
10-Feb-19 18:38 47.439185 -122.315195 55 351ft 0kts
10-Feb-19 18:39 47.439185 -122.315195 55 351ft 0kts
10-Feb-19 18:40 47.439213 -122.315132 58 351ft 3kts
10-Feb-19 18:41 47.443686 -122.313591 1 368ft 30kts
10-Feb-19 18:42 47.452608 -122.313496 1 401ft 33kts
10-Feb-19 18:43 47.461414 -122.313413 0 391ft 26kts
10-Feb-19 18:44 47.463299 -122.313346 90 375ft 0kts
10-Feb-19 18:45 47.463299 -122.313346 90 375ft 0kts
10-Feb-19 18:46 47.463662 -122.312491 90 376ft 0kts
10-Feb-19 18:47 47.462268 -122.310991 179 399ft 36kts
10-Feb-19 18:48 47.440290 -122.311613 180 848ft 101kts
10-Feb-19 18:49 47.410685 -122.313911 180 1430ft 106kts
10-Feb-19 18:50 47.385042 -122.327983 260 2024ft 112kts
10-Feb-19 18:51 47.394496 -122.370857 290 2702ft 107kts
10-Feb-19 18:52 47.405027 -122.411005 290 3399ft 102kts
10-Feb-19 18:53 47.415054 -122.449286 290 4094ft 98kts
10-Feb-19 18:54 47.437350 -122.451239 22 4739ft 92kts
10-Feb-19 18:55 47.468385 -122.441083 11 4728ft 111kts
10-Feb-19 18:56 47.496118 -122.436185 9 4770ft 92kts
10-Feb-19 18:57 47.520911 -122.435279 359 5167ft 87kts
10-Feb-19 18:58 47.544742 -122.439171 356 5535ft 87kts
10-Feb-19 18:59 47.569791 -122.444667 354 5723ft 100kts
10-Feb-19 19:00 47.598578 -122.451638 353 5718ft 107kts
10-Feb-19 19:01 47.627202 -122.458874 353 5717ft 103kts
10-Feb-19 19:02 47.655454 -122.466110 353 5716ft 103kts
10-Feb-19 19:03 47.684022 -122.473462 353 5715ft 104kts
10-Feb-19 19:04 47.712684 -122.480856 353 5714ft 105kts
10-Feb-19 19:05 47.741459 -122.488290 353 5714ft 105kts
10-Feb-19 19:06 47.768304 -122.495308 353 5974ft 88kts
10-Feb-19 19:07 47.793849 -122.501897 353 6061ft 101kts
10-Feb-19 19:08 47.822556 -122.509300 353 6060ft 106kts
10-Feb-19 19:09 47.851769 -122.516874 353 6060ft 107kts
10-Feb-19 19:10 47.880911 -122.525561 350 6057ft 106kts
10-Feb-19 19:11 47.908230 -122.533000 0 6053ft 93kts
10-Feb-19 19:12 47.931667 -122.536233 358 6047ft 73kts
10-Feb-19 19:13 47.941779 -122.543797 254 5235ft 95kts
10-Feb-19 19:14 47.943937 -122.542574 21 4688ft 68kts
10-Feb-19 19:15 47.957388 -122.566194 303 4836ft 86kts
10-Feb-19 19:16 47.975505 -122.589443 329 5160ft 95kts
10-Feb-19 19:17 48.002136 -122.612042 340 5100ft 115kts
10-Feb-19 19:18 48.032254 -122.630916 341 5101ft 118kts
10-Feb-19 19:19 48.062721 -122.650060 340 5099ft 119kts
10-Feb-19 19:20 48.091812 -122.668593 339 5355ft 103kts
10-Feb-19 19:21 48.116742 -122.683818 343 5830ft 92kts
10-Feb-19 19:22 48.140091 -122.697871 343 6213ft 98kts
10-Feb-19 19:23 48.167286 -122.719775 307 6037ft 126kts
10-Feb-19 19:24 48.187078 -122.764588 304 5537ft 129kts
10-Feb-19 19:25 48.212941 -122.779964 61 4987ft 111kts
10-Feb-19 19:26 48.240848 -122.775156 335 4451ft 128kts
10-Feb-19 19:27 48.266305 -122.806458 297 4433ft 113kts
10-Feb-19 19:28 48.276506 -122.851254 283 4435ft 114kts
10-Feb-19 19:29 48.284776 -122.897327 282 4429ft 113kts
10-Feb-19 19:30 48.292685 -122.943794 282 4428ft 115kts
10-Feb-19 19:31 48.295214 -122.990666 256 4420ft 114kts
10-Feb-19 19:32 48.300662 -123.035950 298 4413ft 112kts
10-Feb-19 19:33 48.314217 -123.077607 298 4407ft 110kts
10-Feb-19 19:34 48.327668 -123.118813 298 4401ft 109kts
10-Feb-19 19:35 48.341008 -123.159448 298 4399ft 107kts
10-Feb-19 19:36 48.340461 -123.197842 197 4395ft 111kts
10-Feb-19 19:37 48.325923 -123.167459 93 4398ft 105kts
10-Feb-19 19:38 48.326973 -123.123776 81 4399ft 104kts
10-Feb-19 19:39 48.334744 -123.082516 65 4404ft 103kts
10-Feb-19 19:40 48.337894 -123.041646 116 4409ft 103kts
10-Feb-19 19:41 48.332802 -123.000474 89 4416ft 100kts
10-Feb-19 19:42 48.334399 -122.958450 87 4337ft 106kts
10-Feb-19 19:43 48.336669 -122.913324 88 3831ft 103kts
10-Feb-19 19:44 48.338857 -122.870552 89 3322ft 102kts
10-Feb-19 19:45 48.341073 -122.827532 91 2811ft 102kts
10-Feb-19 19:46 48.345763 -122.788719 79 2804ft 93kts
10-Feb-19 19:47 48.349450 -122.746896 93 2600ft 83kts
10-Feb-19 19:48 48.350742 -122.710148 96 939ft 74kts
10-Feb-19 19:49 48.351223 -122.680747 98 232ft 68kts
10-Feb-19 19:50 48.351618 -122.663695 73 30ft 10kts
10-Feb-19 19:51 48.349420 -122.669290 222 20ft 12kts

Navigation Log

Ident Type
Flight plan parsing failed, navigation log unavailable